Time;durP1;ratioP1;P1;durP2;ratioP2;P2;SDS_P1;SDS_P2;PMS_P1;PMS_P2;Temp;Humidity;BMP_temperature;BMP_pressure;BME280_temperature;BME280_humidity;BME280_pressure;Samples;Min_cycle;Max_cycle;Signal;HPM_P1;HPM_P2
2021/07/11 00:02:11;;;;;;;4.57;0.98;;;24.80;51.80;;;;;;4331555;33;20527;-37
2021/07/11 00:04:38;;;;;;;7.25;0.90;;;24.80;52.00;;;;;;4344737;33;20564;-37
2021/07/11 00:07:04;;;;;;;2.22;0.93;;;24.80;51.90;;;;;;4327280;33;20167;-36
2021/07/11 00:09:31;;;;;;;3.55;1.40;;;24.80;51.80;;;;;;4314840;33;20611;-36
2021/07/11 00:11:57;;;;;;;2.05;1.02;;;24.80;51.70;;;;;;4327638;33;20062;-36
2021/07/11 00:14:23;;;;;;;13.52;1.55;;;24.90;51.90;;;;;;4327272;33;20071;-36
2021/07/11 00:16:50;;;;;;;1.48;0.80;;;24.90;51.80;;;;;;4327893;33;20083;-36
2021/07/11 00:19:16;;;;;;;5.82;2.05;;;24.90;51.80;;;;;;4327450;33;20071;-35
2021/07/11 00:21:42;;;;;;;2.17;1.02;;;24.90;52.00;;;;;;4327972;33;20152;-36
2021/07/11 00:24:09;;;;;;;5.53;1.05;;;24.80;52.20;;;;;;4315376;33;20751;-37
2021/07/11 00:26:36;;;;;;;5.32;1.98;;;24.80;52.50;;;;;;4315361;33;20077;-36
2021/07/11 00:29:02;;;;;;;2.62;1.15;;;24.70;52.90;;;;;;4327477;33;20091;-37
2021/07/11 00:31:28;;;;;;;2.90;1.23;;;24.70;53.10;;;;;;4327167;33;20215;-37
2021/07/11 00:33:55;;;;;;;3.28;1.42;;;24.70;53.10;;;;;;4327547;33;20563;-36
2021/07/11 00:36:21;;;;;;;2.87;1.65;;;24.60;53.30;;;;;;4327401;33;20079;-37
2021/07/11 00:38:47;;;;;;;3.58;1.73;;;24.70;53.30;;;;;;4327129;33;20566;-36
2021/07/11 00:41:14;;;;;;;2.40;1.15;;;24.60;53.10;;;;;;4300136;33;20075;-37
2021/07/11 00:43:40;;;;;;;2.45;1.12;;;24.50;53.10;;;;;;4298191;33;20158;-37
2021/07/11 00:46:07;;;;;;;3.12;1.10;;;24.50;52.90;;;;;;4298250;33;20266;-36
2021/07/11 00:48:33;;;;;;;1.55;0.68;;;24.50;52.90;;;;;;4273867;33;20118;-37
2021/07/11 00:51:00;;;;;;;1.10;0.90;;;24.40;52.80;;;;;;4286222;33;20178;-37
2021/07/11 00:53:26;;;;;;;4.82;2.00;;;24.40;52.90;;;;;;4285683;33;20095;-36
2021/07/11 00:55:53;;;;;;;1.73;0.82;;;24.30;52.90;;;;;;4298020;33;20064;-37
2021/07/11 00:58:19;;;;;;;2.35;1.05;;;24.30;52.70;;;;;;4306563;33;20255;-38
2021/07/11 01:00:51;;;;;;;3.95;1.60;;;24.30;52.50;;;;;;4283147;33;20557;-37
2021/07/11 01:03:31;;;;;;;2.22;1.20;;;24.30;52.50;;;;;;4283573;33;20148;-37
2021/07/11 01:05:57;;;;;;;2.42;1.33;;;24.30;52.60;;;;;;4271785;33;20151;-38
2021/07/11 01:08:33;;;;;;;2.65;1.17;;;24.20;52.40;;;;;;4271192;33;20484;-37
2021/07/11 01:11:05;;;;;;;0.50;0.40;;;24.20;53.10;;;;;;4283485;33;20076;-36
2021/07/11 01:13:32;;;;;;;1.70;1.30;;;24.20;52.20;;;;;;4260108;33;20505;-38
2021/07/11 01:16:09;;;;;;;3.05;1.20;;;24.20;51.90;;;;;;4285538;33;20068;-38
2021/07/11 01:18:39;;;;;;;1.55;1.10;;;24.30;52.00;;;;;;4297503;33;20071;-38
2021/07/11 01:21:17;;;;;;;1.60;0.90;;;24.30;51.80;;;;;;4285425;33;20074;-39
2021/07/11 01:23:52;;;;;;;1.10;0.70;;;24.30;51.80;;;;;;4285793;33;20128;-37
2021/07/11 01:26:18;;;;;;;1.67;0.55;;;24.40;51.70;;;;;;4297749;33;20506;-36
2021/07/11 01:28:48;;;;;;;1.62;1.42;;;24.50;51.70;;;;;;4285908;33;20158;-38
2021/07/11 01:31:15;;;;;;;3.35;1.12;;;24.50;51.40;;;;;;4297683;33;20056;-38
2021/07/11 01:33:42;;;;;;;0.82;0.60;;;24.50;50.90;;;;;;4273648;33;20071;-36
2021/07/11 01:36:10;;;;;;;1.20;0.82;;;24.50;51.10;;;;;;4285652;33;20243;-38
2021/07/11 01:38:37;;;;;;;1.52;0.73;;;24.60;51.20;;;;;;4302199;33;20059;-38
2021/07/11 01:41:08;;;;;;;3.40;1.42;;;24.60;51.40;;;;;;4329290;33;20063;-38
2021/07/11 01:43:35;;;;;;;4.70;1.33;;;24.60;51.50;;;;;;4341212;33;20079;-37
2021/07/11 01:46:02;;;;;;;2.25;1.15;;;24.60;50.90;;;;;;4329189;33;20066;-37
2021/07/11 01:48:30;;;;;;;1.95;0.60;;;24.70;51.70;;;;;;4296876;33;20104;-37
2021/07/11 01:50:57;;;;;;;1.60;1.05;;;24.80;51.00;;;;;;4285461;33;20587;-37
2021/07/11 01:53:32;;;;;;;1.37;1.12;;;24.90;50.80;;;;;;4292017;33;20059;-37
2021/07/11 01:55:58;;;;;;;0.60;0.30;;;25.00;50.20;;;;;;4300163;33;20597;-37
2021/07/11 01:58:25;;;;;;;2.03;0.90;;;25.10;49.80;;;;;;4296901;33;20220;-35
2021/07/11 02:00:53;;;;;;;4.10;0.88;;;25.30;49.40;;;;;;4258235;33;20132;-37
2021/07/11 02:03:24;;;;;;;1.98;1.10;;;25.50;49.30;;;;;;4270700;33;20087;-36
2021/07/11 02:05:52;;;;;;;2.15;0.65;;;25.60;48.50;;;;;;4282263;33;20159;-36
2021/07/11 02:08:19;;;;;;;5.60;1.70;;;25.60;48.20;;;;;;4270608;33;20578;-37
2021/07/11 02:10:48;;;;;;;1.17;0.95;;;25.80;48.20;;;;;;4271651;33;20146;-37
2021/07/11 02:13:33;;;;;;;2.78;0.60;;;25.80;47.70;;;;;;4270662;33;20114;-37
2021/07/11 02:16:30;;;;;;;0.57;0.40;;;25.80;47.60;;;;;;4271187;33;20244;-37
2021/07/11 02:18:57;;;;;;;1.17;0.60;;;25.90;47.70;;;;;;4265272;33;20116;-38
2021/07/11 02:21:24;;;;;;;1.00;0.60;;;26.00;47.40;;;;;;4285007;33;20079;-37
2021/07/11 02:23:51;;;;;;;0.98;0.88;;;26.10;47.40;;;;;;4273531;33;20095;-37
2021/07/11 02:26:17;;;;;;;6.85;1.58;;;26.20;47.20;;;;;;4273128;33;20109;-37
2021/07/11 02:28:44;;;;;;;2.90;0.90;;;26.30;47.10;;;;;;4296421;33;20658;-37
2021/07/11 02:31:13;;;;;;;3.53;1.30;;;26.50;46.80;;;;;;4282273;33;20067;-38
2021/07/11 02:33:42;;;;;;;3.25;0.80;;;26.50;46.60;;;;;;4329941;33;20145;-37
2021/07/11 02:36:17;;;;;;;3.22;1.20;;;26.50;46.50;;;;;;4329095;33;20482;-37
2021/07/11 02:38:55;;;;;;;3.15;1.33;;;26.40;46.50;;;;;;4343009;33;20063;-37
2021/07/11 02:41:22;;;;;;;0.85;0.45;;;26.30;46.90;;;;;;4329526;33;20065;-37
2021/07/11 02:43:50;;;;;;;2.10;0.77;;;26.40;47.30;;;;;;4329507;33;20093;-37
2021/07/11 02:46:20;;;;;;;5.47;0.82;;;26.40;47.30;;;;;;4329377;33;20176;-38
2021/07/11 02:48:46;;;;;;;1.75;1.05;;;26.40;47.20;;;;;;4301641;33;20068;-37
2021/07/11 02:51:17;;;;;;;3.10;0.90;;;26.50;47.20;;;;;;4313814;33;20496;-37
2021/07/11 02:53:44;;;;;;;4.55;0.98;;;26.50;47.00;;;;;;4313735;33;20093;-37
2021/07/11 02:56:11;;;;;;;0.50;0.50;;;26.60;47.10;;;;;;4313299;33;20107;-36
2021/07/11 02:58:38;;;;;;;1.50;1.05;;;26.60;46.90;;;;;;4309483;33;20079;-37
2021/07/11 03:01:05;;;;;;;3.62;1.30;;;26.80;46.80;;;;;;4313460;33;20543;-38
2021/07/11 03:03:31;;;;;;;3.95;1.20;;;26.90;46.40;;;;;;4325660;33;20144;-37
2021/07/11 03:05:58;;;;;;;1.70;1.25;;;27.10;46.30;;;;;;4313135;33;20075;-38
2021/07/11 03:08:24;;;;;;;1.98;0.98;;;27.00;46.30;;;;;;4325522;33;20075;-37
2021/07/11 03:10:51;;;;;;;2.28;1.25;;;26.90;46.60;;;;;;4313542;33;20095;-37
2021/07/11 03:13:17;;;;;;;1.87;0.60;;;26.80;46.80;;;;;;4325528;33;20540;-37
2021/07/11 03:15:44;;;;;;;0.82;0.40;;;26.90;47.10;;;;;;4301507;33;20086;-37
2021/07/11 03:18:10;;;;;;;1.10;1.00;;;27.00;47.10;;;;;;4325409;33;20086;-38
2021/07/11 03:20:37;;;;;;;1.35;0.77;;;27.00;47.10;;;;;;4326504;33;20066;-36
2021/07/11 03:23:03;;;;;;;1.17;0.70;;;27.20;47.00;;;;;;4329104;33;20063;-37
2021/07/11 03:25:30;;;;;;;2.20;1.00;;;27.20;46.80;;;;;;4316479;33;20071;-37
2021/07/11 03:27:57;;;;;;;1.80;1.25;;;27.40;46.70;;;;;;4316675;33;20094;-35
2021/07/11 03:30:24;;;;;;;3.30;1.02;;;27.40;46.80;;;;;;4329333;33;20121;-36
2021/07/11 03:32:59;;;;;;;6.37;1.50;;;27.40;46.60;;;;;;4317086;33;20163;-38
2021/07/11 03:35:43;;;;;;;2.65;1.37;;;27.50;46.60;;;;;;4329528;33;20070;-37
2021/07/11 03:38:15;;;;;;;0.87;0.60;;;27.50;46.60;;;;;;4316891;33;20082;-38
2021/07/11 03:40:44;;;;;;;2.45;1.10;;;27.50;46.70;;;;;;4329002;33;20104;-38
2021/07/11 03:43:11;;;;;;;1.30;1.20;;;27.40;46.40;;;;;;4304989;33;20090;-43
2021/07/11 03:45:40;;;;;;;1.90;1.00;;;27.50;46.70;;;;;;4301270;33;20082;-35
2021/07/11 03:48:32;;;;;;;3.10;0.80;;;27.50;46.50;;;;;;4301312;33;20095;-37
2021/07/11 03:51:02;;;;;;;1.37;0.90;;;27.60;46.60;;;;;;4313328;33;20118;-37
2021/07/11 03:53:31;;;;;;;1.33;1.02;;;27.50;46.40;;;;;;4301084;33;20532;-36
2021/07/11 03:55:59;;;;;;;1.62;1.12;;;27.60;46.50;;;;;;4301476;33;20074;-36
2021/07/11 03:58:28;;;;;;;0.88;0.68;;;27.60;46.60;;;;;;4292150;33;20059;-37
2021/07/11 04:00:55;;;;;;;2.25;1.33;;;27.70;46.50;;;;;;4288256;33;20079;-39
2021/07/11 04:03:24;;;;;;;1.12;0.80;;;27.60;46.30;;;;;;4299575;33;20106;-37
2021/07/11 04:05:51;;;;;;;3.80;0.90;;;27.80;46.50;;;;;;4286681;33;20139;-37
2021/07/11 04:08:18;;;;;;;5.43;1.62;;;28.00;46.60;;;;;;4286910;33;20094;-37
2021/07/11 04:10:45;;;;;;;1.20;0.88;;;28.10;46.20;;;;;;4286310;33;20500;-36
2021/07/11 04:13:13;;;;;;;2.00;1.60;;;28.30;46.00;;;;;;4286467;33;20085;-37
2021/07/11 04:15:40;;;;;;;1.20;0.93;;;28.50;46.10;;;;;;4286730;33;20153;-36
2021/07/11 04:18:11;;;;;;;2.03;1.30;;;28.50;45.90;;;;;;4286337;33;20153;-37
2021/07/11 04:20:38;;;;;;;7.82;1.98;;;28.60;46.00;;;;;;4274497;33;20087;-37
2021/07/11 04:23:05;;;;;;;6.78;1.50;;;28.70;45.80;;;;;;4309091;33;20059;-37
2021/07/11 04:25:33;;;;;;;5.68;1.67;;;28.80;45.80;;;;;;4331071;33;20074;-36
2021/07/11 04:28:00;;;;;;;1.73;1.17;;;28.90;45.60;;;;;;4344721;33;20071;-36
2021/07/11 04:30:27;;;;;;;1.75;1.05;;;29.00;45.30;;;;;;4344858;33;20085;-36
2021/07/11 04:32:54;;;;;;;1.52;1.05;;;29.10;45.10;;;;;;4345172;33;20055;-37
2021/07/11 04:35:20;;;;;;;3.10;1.12;;;29.10;45.00;;;;;;4344800;33;20138;-38
2021/07/11 04:37:47;;;;;;;1.87;1.77;;;29.10;44.70;;;;;;4330803;33;20172;-37
2021/07/11 04:40:14;;;;;;;2.53;1.60;;;29.10;44.50;;;;;;4312223;33;20084;-37
2021/07/11 04:42:40;;;;;;;1.67;1.58;;;29.10;44.90;;;;;;4300669;33;20067;-38
2021/07/11 04:45:07;;;;;;;1.23;1.12;;;29.10;45.00;;;;;;4299994;33;20079;-38
2021/07/11 04:47:34;;;;;;;1.15;0.85;;;29.10;44.90;;;;;;4312338;33;20174;-37
2021/07/11 04:50:00;;;;;;;0.55;0.50;;;29.20;44.80;;;;;;4312526;33;20068;-36
2021/07/11 04:52:27;;;;;;;1.30;0.60;;;29.10;43.90;;;;;;4312829;33;20071;-38
2021/07/11 04:54:53;;;;;;;0.98;0.73;;;29.10;44.30;;;;;;4299826;33;20124;-37
2021/07/11 04:57:21;;;;;;;3.33;1.30;;;29.10;44.60;;;;;;4312200;33;20609;-37
2021/07/11 04:59:48;;;;;;;1.95;1.10;;;29.10;43.80;;;;;;4312585;33;20066;-37
2021/07/11 05:02:14;;;;;;;1.50;0.98;;;29.00;44.30;;;;;;4312074;33;20533;-37
2021/07/11 05:04:41;;;;;;;2.85;1.10;;;28.90;43.80;;;;;;4299974;33;20464;-37
2021/07/11 05:07:07;;;;;;;1.30;1.02;;;28.90;44.10;;;;;;4300260;33;20075;-38
2021/07/11 05:09:34;;;;;;;2.22;1.23;;;29.00;44.30;;;;;;4268392;33;20565;-38
2021/07/11 05:12:00;;;;;;;1.00;0.70;;;29.10;43.80;;;;;;4269225;33;20748;-37
2021/07/11 05:14:27;;;;;;;2.35;1.12;;;29.10;43.70;;;;;;4268842;33;20625;-36
2021/07/11 05:16:53;;;;;;;1.17;0.57;;;29.10;43.40;;;;;;4276121;33;20163;-37
2021/07/11 05:19:20;;;;;;;0.45;0.45;;;29.10;43.20;;;;;;4312069;33;20140;-38
2021/07/11 05:21:46;;;;;;;2.00;0.75;;;29.30;43.40;;;;;;4311943;33;20115;-37
2021/07/11 05:24:13;;;;;;;2.83;1.00;;;29.40;43.00;;;;;;4311585;33;20091;-37
2021/07/11 05:26:39;;;;;;;2.17;1.20;;;29.40;42.10;;;;;;4311256;33;20063;-36
2021/07/11 05:29:05;;;;;;;1.75;1.27;;;29.40;41.80;;;;;;4312411;33;20112;-35
2021/07/11 05:31:32;;;;;;;1.23;0.80;;;29.40;41.70;;;;;;4311494;33;20079;-36
2021/07/11 05:33:58;;;;;;;0.80;0.80;;;29.40;42.10;;;;;;4300089;33;20063;-36
2021/07/11 05:36:25;;;;;;;1.62;1.10;;;29.50;42.40;;;;;;4311895;33;20072;-38
2021/07/11 05:38:51;;;;;;;1.45;0.95;;;29.50;42.00;;;;;;4312089;33;20078;-37
2021/07/11 05:41:18;;;;;;;2.62;0.80;;;29.60;41.70;;;;;;4335239;33;20110;-38
2021/07/11 05:43:45;;;;;;;2.60;0.85;;;29.70;41.00;;;;;;4328950;33;20500;-39
2021/07/11 05:46:11;;;;;;;1.08;0.98;;;29.70;40.70;;;;;;4341007;33;20114;-38
2021/07/11 05:48:37;;;;;;;1.62;0.95;;;29.60;40.70;;;;;;4316499;33;20158;-38
2021/07/11 05:51:04;;;;;;;1.50;1.12;;;29.40;40.80;;;;;;4340843;33;20062;-36
2021/07/11 05:53:30;;;;;;;1.12;0.90;;;29.40;41.30;;;;;;4341274;33;20066;-37
2021/07/11 05:55:57;;;;;;;0.85;0.60;;;29.40;41.00;;;;;;4340809;33;20185;-37
2021/07/11 05:58:23;;;;;;;5.90;1.20;;;29.50;40.80;;;;;;4319299;33;20090;-38
2021/07/11 06:00:50;;;;;;;1.02;0.60;;;29.60;40.80;;;;;;4326008;33;20075;-37
2021/07/11 06:03:17;;;;;;;2.08;0.77;;;29.50;40.70;;;;;;4311200;33;20222;-37
2021/07/11 06:05:43;;;;;;;2.37;0.95;;;29.60;40.70;;;;;;4310703;33;20079;-37
2021/07/11 06:08:10;;;;;;;1.00;0.70;;;29.70;40.90;;;;;;4282208;33;20075;-36
2021/07/11 06:10:37;;;;;;;1.17;0.60;;;29.70;40.80;;;;;;4282411;33;20088;-36
2021/07/11 06:13:03;;;;;;;0.95;0.77;;;29.80;40.50;;;;;;4282854;33;20064;-37
2021/07/11 06:15:30;;;;;;;1.20;0.90;;;30.00;40.40;;;;;;4282468;33;20604;-37
2021/07/11 06:17:56;;;;;;;1.83;1.30;;;30.10;39.90;;;;;;4270573;33;20064;-36
2021/07/11 06:20:23;;;;;;;1.15;0.93;;;30.10;39.70;;;;;;4269965;33;20148;-36
2021/07/11 06:22:50;;;;;;;2.62;1.67;;;30.00;40.40;;;;;;4270477;33;20193;-37
2021/07/11 06:25:17;;;;;;;1.33;0.80;;;29.90;40.10;;;;;;4270531;33;20501;-37
2021/07/11 06:27:44;;;;;;;2.62;1.30;;;29.80;40.20;;;;;;4270287;33;20501;-37
2021/07/11 06:30:13;;;;;;;1.48;1.12;;;29.70;40.50;;;;;;4270305;33;20553;-37
2021/07/11 06:32:41;;;;;;;1.17;1.05;;;29.70;40.40;;;;;;4270236;33;20060;-37
2021/07/11 06:35:10;;;;;;;2.70;0.80;;;29.70;40.40;;;;;;4282114;33;20064;-38
2021/07/11 06:37:36;;;;;;;1.08;0.60;;;29.80;40.40;;;;;;4282389;33;20096;-36
2021/07/11 06:40:05;;;;;;;2.15;0.80;;;30.00;40.40;;;;;;4301785;33;20482;-37
2021/07/11 06:42:31;;;;;;;1.08;0.80;;;30.20;39.70;;;;;;4343244;33;20098;-38
2021/07/11 06:44:58;;;;;;;1.90;1.00;;;30.20;39.20;;;;;;4329017;33;20079;-38
2021/07/11 06:47:24;;;;;;;2.92;0.88;;;30.20;38.30;;;;;;4328974;33;20436;-37
2021/07/11 06:49:51;;;;;;;4.18;1.05;;;30.20;38.60;;;;;;4329048;33;20063;-37
2021/07/11 06:52:17;;;;;;;3.58;1.20;;;30.30;39.20;;;;;;4310875;33;20172;-37
2021/07/11 06:54:44;;;;;;;2.33;1.20;;;30.40;38.60;;;;;;4311170;33;20131;-37
2021/07/11 06:57:10;;;;;;;0.85;0.73;;;30.40;38.30;;;;;;4309022;33;20075;-38
2021/07/11 06:59:37;;;;;;;0.52;0.40;;;30.50;38.20;;;;;;4296774;33;20068;-37
2021/07/11 07:02:04;;;;;;;1.20;0.90;;;30.60;38.10;;;;;;4272980;33;20153;-37
2021/07/11 07:04:30;;;;;;;1.25;1.10;;;30.70;37.90;;;;;;4296520;33;20148;-36
2021/07/11 07:06:56;;;;;;;4.22;1.00;;;30.70;37.20;;;;;;4304931;33;20071;-35
2021/07/11 07:09:23;;;;;;;3.25;0.85;;;30.60;37.50;;;;;;4298851;33;20070;-37
2021/07/11 07:11:49;;;;;;;2.33;0.90;;;30.50;37.50;;;;;;4310918;33;20143;-37
2021/07/11 07:14:16;;;;;;;2.45;0.98;;;30.50;37.20;;;;;;4310786;33;20097;-37
2021/07/11 07:16:42;;;;;;;0.73;0.40;;;30.40;37.00;;;;;;4310806;33;20374;-37
2021/07/11 07:19:09;;;;;;;1.23;0.77;;;30.60;37.90;;;;;;4301506;33;20158;-36
2021/07/11 07:21:35;;;;;;;2.03;1.02;;;30.80;36.70;;;;;;4313682;33;20091;-37
2021/07/11 07:24:02;;;;;;;0.45;0.45;;;30.90;36.20;;;;;;4313754;33;20083;-37
2021/07/11 07:26:28;;;;;;;1.02;0.50;;;30.90;35.70;;;;;;4313594;33;20092;-37
2021/07/11 07:28:55;;;;;;;0.90;0.62;;;31.00;35.70;;;;;;4318693;33;20051;-37
2021/07/11 07:31:22;;;;;;;1.60;1.00;;;31.20;36.00;;;;;;4345325;33;20074;-36
2021/07/11 07:33:48;;;;;;;3.83;1.05;;;31.30;34.90;;;;;;4345513;33;20118;-37
2021/07/11 07:36:14;;;;;;;1.02;0.70;;;31.30;35.30;;;;;;4345198;33;20102;-37
2021/07/11 07:38:41;;;;;;;3.12;0.73;;;31.20;35.50;;;;;;4345243;33;20613;-36
2021/07/11 07:41:07;;;;;;;1.10;0.90;;;31.30;35.30;;;;;;4345437;33;20534;-37
2021/07/11 07:43:34;;;;;;;1.58;0.80;;;31.10;35.00;;;;;;4345549;33;20493;-37
2021/07/11 07:46:00;;;;;;;1.45;0.60;;;31.00;35.50;;;;;;4344984;33;20099;-36
2021/07/11 07:48:27;;;;;;;0.55;0.50;;;30.90;35.60;;;;;;4344952;33;20070;-38
2021/07/11 07:50:53;;;;;;;2.05;0.68;;;31.00;35.60;;;;;;4345156;33;20080;-36
2021/07/11 07:53:19;;;;;;;1.02;0.73;;;31.10;35.50;;;;;;4345163;33;20098;-36
2021/07/11 07:55:46;;;;;;;2.42;0.75;;;31.20;35.50;;;;;;4331405;33;20139;-37
2021/07/11 07:58:12;;;;;;;1.60;0.82;;;31.40;35.20;;;;;;4344688;32;20172;-36
2021/07/11 08:00:39;;;;;;;1.30;0.70;;;31.20;33.30;;;;;;4345433;32;20062;-36
2021/07/11 08:03:05;;;;;;;1.80;0.35;;;31.30;34.10;;;;;;4331206;33;20067;-37
2021/07/11 08:05:32;;;;;;;0.52;0.50;;;31.40;34.50;;;;;;4344998;32;20078;-36
2021/07/11 08:07:58;;;;;;;0.50;0.45;;;31.60;33.70;;;;;;4359979;32;20511;-36
2021/07/11 08:10:25;;;;;;;0.95;0.80;;;31.80;33.50;;;;;;4345966;32;20062;-37
2021/07/11 08:12:51;;;;;;;1.00;0.77;;;31.80;32.90;;;;;;4360088;32;20078;-38
2021/07/11 08:15:19;;;;;;;0.80;0.60;;;31.60;33.70;;;;;;4345615;32;20086;-37
2021/07/11 08:17:50;;;;;;;0.93;0.50;;;31.50;33.50;;;;;;4360150;32;20071;-36
2021/07/11 08:20:20;;;;;;;0.90;0.68;;;31.50;33.40;;;;;;4359827;32;20066;-36
2021/07/11 08:22:47;;;;;;;1.37;0.55;;;31.60;33.30;;;;;;4345728;32;20080;-36
2021/07/11 08:25:14;;;;;;;0.80;0.70;;;31.70;33.40;;;;;;4345948;32;20138;-37
2021/07/11 08:27:41;;;;;;;0.50;0.50;;;31.90;32.80;;;;;;4345638;32;20128;-38
2021/07/11 08:30:10;;;;;;;1.77;0.47;;;32.10;33.00;;;;;;4333406;32;20089;-37
2021/07/11 08:32:37;;;;;;;0.65;0.52;;;32.20;32.50;;;;;;4359270;32;20086;-37
2021/07/11 08:35:04;;;;;;;4.22;0.50;;;32.10;32.30;;;;;;4359727;32;20063;-37
2021/07/11 08:37:31;;;;;;;0.98;0.50;;;32.00;32.30;;;;;;4359158;32;20055;-36
2021/07/11 08:39:57;;;;;;;0.50;0.40;;;31.90;32.20;;;;;;4345630;32;20086;-36
2021/07/11 08:42:24;;;;;;;1.25;0.60;;;31.80;32.00;;;;;;4358869;32;20562;-37
2021/07/11 08:44:51;;;;;;;0.50;0.40;;;31.90;31.30;;;;;;4359332;32;20070;-37
2021/07/11 08:47:20;;;;;;;2.25;0.80;;;31.80;31.90;;;;;;4359499;32;20155;-37
2021/07/11 08:49:47;;;;;;;1.42;0.80;;;31.70;32.00;;;;;;4359675;32;20096;-36
2021/07/11 08:52:14;;;;;;;1.02;0.43;;;31.70;31.70;;;;;;4315015;33;20094;-38
2021/07/11 08:54:41;;;;;;;1.62;0.60;;;31.70;32.10;;;;;;4315282;33;20060;-38
2021/07/11 08:57:10;;;;;;;3.47;0.70;;;31.70;32.80;;;;;;4313224;33;20209;-37
2021/07/11 08:59:41;;;;;;;2.17;0.70;;;31.80;32.50;;;;;;4300261;33;20122;-39
2021/07/11 09:02:08;;;;;;;0.90;0.70;;;32.00;31.80;;;;;;4299967;33;20203;-36
2021/07/11 09:04:47;;;;;;;0.93;0.40;;;32.00;30.90;;;;;;4288376;33;20083;-37
2021/07/11 09:07:21;;;;;;;1.00;0.62;;;32.00;30.80;;;;;;4322624;33;20520;-37
2021/07/11 09:09:59;;;;;;;0.98;0.82;;;32.00;30.80;;;;;;4326809;33;20086;-37
2021/07/11 09:12:26;;;;;;;1.52;0.60;;;32.20;31.20;;;;;;4326836;33;20838;-37
2021/07/11 09:14:53;;;;;;;4.43;0.55;;;32.10;31.30;;;;;;4314956;33;20298;-37
2021/07/11 09:17:20;;;;;;;0.80;0.60;;;32.10;31.80;;;;;;4326810;33;20112;-37
2021/07/11 09:19:48;;;;;;;1.95;1.05;;;32.10;32.10;;;;;;4326861;33;20077;-37
2021/07/11 09:22:22;;;;;;;0.60;0.60;;;32.20;32.00;;;;;;4315097;33;20067;-37
2021/07/11 09:24:54;;;;;;;1.70;0.68;;;32.20;31.50;;;;;;4316559;33;20069;-36
2021/07/11 09:27:29;;;;;;;1.70;0.50;;;32.20;31.20;;;;;;4328687;33;20190;-36
2021/07/11 09:30:00;;;;;;;1.48;0.75;;;32.30;31.40;;;;;;4329086;33;20075;-36
2021/07/11 09:32:34;;;;;;;1.10;0.77;;;32.30;31.50;;;;;;4328850;33;20540;-37
2021/07/11 09:35:12;;;;;;;1.37;0.70;;;32.30;31.90;;;;;;4315271;33;20063;-36
2021/07/11 09:37:41;;;;;;;1.92;0.80;;;32.50;32.40;;;;;;4328687;33;20429;-35
2021/07/11 09:40:08;;;;;;;1.35;0.55;;;32.30;31.40;;;;;;4329203;33;20558;-37
2021/07/11 09:42:39;;;;;;;0.82;0.60;;;32.30;31.70;;;;;;4328809;33;20146;-36
2021/07/11 09:45:28;;;;;;;0.60;0.52;;;32.30;31.40;;;;;;4329099;33;20083;-39
2021/07/11 09:48:06;;;;;;;3.17;0.85;;;32.40;30.60;;;;;;4328583;33;20066;-36
2021/07/11 09:50:32;;;;;;;2.80;0.60;;;32.40;30.80;;;;;;4329127;33;20496;-36
2021/07/11 09:52:59;;;;;;;0.88;0.47;;;32.40;31.10;;;;;;4315416;33;20099;-38
2021/07/11 09:55:27;;;;;;;0.73;0.60;;;32.50;31.20;;;;;;4315209;33;20059;-36
2021/07/11 09:57:59;;;;;;;0.80;0.70;;;32.70;30.50;;;;;;4335274;33;20161;-37
2021/07/11 10:00:35;;;;;;;0.60;0.50;;;32.80;30.50;;;;;;4343274;33;20078;-38
2021/07/11 10:03:07;;;;;;;1.55;0.30;;;32.90;30.30;;;;;;4343175;33;20495;-37
2021/07/11 10:05:34;;;;;;;0.60;0.40;;;32.80;30.00;;;;;;4329737;32;20082;-37
2021/07/11 10:08:00;;;;;;;0.50;0.47;;;32.90;30.00;;;;;;4332042;32;20483;-37
2021/07/11 10:10:30;;;;;;;2.28;0.80;;;32.90;29.90;;;;;;4358191;32;20065;-36
2021/07/11 10:12:57;;;;;;;4.65;0.52;;;32.80;29.60;;;;;;4358301;32;20105;-36
2021/07/11 10:15:29;;;;;;;0.43;0.35;;;32.80;29.80;;;;;;4357994;32;20061;-36
2021/07/11 10:18:14;;;;;;;1.65;0.55;;;32.90;30.40;;;;;;4358163;32;20097;-37
2021/07/11 10:20:49;;;;;;;0.25;0.25;;;32.80;29.70;;;;;;4344290;32;20069;-37
2021/07/11 10:23:37;;;;;;;0.60;0.47;;;32.70;29.70;;;;;;4357935;32;20086;-37
2021/07/11 10:26:13;;;;;;;0.60;0.60;;;32.80;29.40;;;;;;4357939;32;20448;-37
2021/07/11 10:28:52;;;;;;;0.80;0.40;;;33.00;29.30;;;;;;4357996;32;20202;-37
2021/07/11 10:31:22;;;;;;;0.57;0.50;;;33.20;29.50;;;;;;4358237;32;20149;-37
2021/07/11 10:33:49;;;;;;;2.85;0.60;;;33.30;29.10;;;;;;4357935;32;20073;-37
2021/07/11 10:36:17;;;;;;;1.30;0.50;;;33.40;29.00;;;;;;4344550;32;20544;-37
2021/07/11 10:38:51;;;;;;;0.70;0.68;;;33.30;28.90;;;;;;4310547;33;20222;-37
2021/07/11 10:41:39;;;;;;;1.85;0.80;;;33.40;29.00;;;;;;4300021;33;20071;-36
2021/07/11 10:44:21;;;;;;;0.60;0.50;;;33.30;28.70;;;;;;4303577;33;20075;-36
2021/07/11 10:46:54;;;;;;;2.35;0.50;;;33.30;28.90;;;;;;4300468;33;20064;-37
2021/07/11 10:49:30;;;;;;;0.40;0.30;;;33.20;29.00;;;;;;4311071;33;20067;-37
2021/07/11 10:51:58;;;;;;;1.02;0.65;;;33.20;28.90;;;;;;4299392;33;20052;-37
2021/07/11 10:54:38;;;;;;;0.50;0.50;;;33.00;28.80;;;;;;4314274;33;20074;-37
2021/07/11 10:57:10;;;;;;;0.20;0.20;;;32.90;28.90;;;;;;4314261;33;20075;-37
2021/07/11 10:59:42;;;;;;;1.85;0.70;;;33.00;28.90;;;;;;4272534;33;20067;-36
2021/07/11 11:02:24;;;;;;;0.80;0.47;;;33.00;28.40;;;;;;4285088;33;20068;-37
2021/07/11 11:05:32;;;;;;;1.40;0.90;;;33.20;28.60;;;;;;4285327;33;20082;-36
2021/07/11 11:08:22;;;;;;;2.35;0.70;;;33.10;28.50;;;;;;4284424;33;20592;-36
2021/07/11 11:10:54;;;;;;;1.00;0.80;;;33.20;28.60;;;;;;4302528;33;20190;-37
2021/07/11 11:13:28;;;;;;;0.35;0.32;;;33.20;28.30;;;;;;4302089;33;20181;-37
2021/07/11 11:16:12;;;;;;;6.12;0.60;;;33.00;28.20;;;;;;4313800;33;20063;-37
2021/07/11 11:18:39;;;;;;;0.80;0.50;;;33.00;28.40;;;;;;4313397;33;20152;-36
2021/07/11 11:21:13;;;;;;;0.93;0.55;;;32.90;28.20;;;;;;4313702;33;20122;-36
2021/07/11 11:23:44;;;;;;;0.82;0.50;;;32.90;28.20;;;;;;4301594;33;20107;-37
2021/07/11 11:26:25;;;;;;;0.85;0.52;;;32.90;28.30;;;;;;4301821;33;20503;-36
2021/07/11 11:28:54;;;;;;;0.52;0.40;;;32.90;28.00;;;;;;4313764;33;20097;-37
2021/07/11 11:31:25;;;;;;;1.10;0.73;;;32.90;28.10;;;;;;4327443;33;20144;-38
2021/07/11 11:34:10;;;;;;;0.50;0.40;;;33.00;28.20;;;;;;4301001;33;20147;-36
2021/07/11 11:36:44;;;;;;;1.15;0.50;;;33.10;28.10;;;;;;4313514;33;20102;-37
2021/07/11 11:39:24;;;;;;;0.40;0.40;;;33.10;27.80;;;;;;4301842;33;20063;-35
2021/07/11 11:41:51;;;;;;;0.80;0.47;;;33.20;27.60;;;;;;4302919;33;20059;-37
2021/07/11 11:44:25;;;;;;;0.43;0.30;;;33.10;27.30;;;;;;4313888;33;20060;-38
2021/07/11 11:46:59;;;;;;;3.53;1.05;;;33.00;27.10;;;;;;4301923;33;20079;-37
2021/07/11 11:49:27;;;;;;;0.82;0.60;;;33.00;27.60;;;;;;4313580;33;20520;-37
2021/07/11 11:51:59;;;;;;;1.50;1.00;;;32.80;28.00;;;;;;4313793;33;20150;-35
2021/07/11 11:54:29;;;;;;;1.23;0.70;;;32.70;28.00;;;;;;4300615;33;20143;-37
2021/07/11 11:56:57;;;;;;;0.47;0.43;;;32.50;27.90;;;;;;4289650;33;20067;-37
2021/07/11 11:59:24;;;;;;;1.00;0.47;;;32.40;27.90;;;;;;4315883;33;20229;-38
2021/07/11 12:01:59;;;;;;;1.20;0.60;;;32.30;28.40;;;;;;4328059;33;20079;-38
2021/07/11 12:04:27;;;;;;;1.00;0.73;;;32.40;28.70;;;;;;4332436;33;20153;-37
2021/07/11 12:06:54;;;;;;;9.27;1.35;;;32.30;28.90;;;;;;4308989;33;20548;-36
2021/07/11 12:09:32;;;;;;;1.37;0.68;;;32.10;29.00;;;;;;4315862;33;20078;-44
2021/07/11 12:12:10;;;;;;;0.75;0.57;;;32.00;29.00;;;;;;4316203;33;20070;-36
2021/07/11 12:14:39;;;;;;;1.17;0.85;;;31.90;29.20;;;;;;4327902;33;20074;-37
2021/07/11 12:17:14;;;;;;;1.10;0.70;;;32.00;29.10;;;;;;4303858;33;20063;-37
2021/07/11 12:19:51;;;;;;;0.82;0.70;;;32.10;28.60;;;;;;4316119;33;20123;-37
2021/07/11 12:22:26;;;;;;;1.15;0.50;;;32.00;28.70;;;;;;4315402;33;20081;-38
2021/07/11 12:25:13;;;;;;;2.08;0.60;;;31.90;28.80;;;;;;4327544;33;20165;-37
2021/07/11 12:27:41;;;;;;;0.50;0.50;;;31.90;28.70;;;;;;4327630;33;20079;-37
2021/07/11 12:30:13;;;;;;;1.45;0.80;;;32.10;29.00;;;;;;4327717;33;20107;-36
2021/07/11 12:32:46;;;;;;;1.50;0.80;;;32.10;28.80;;;;;;4327300;33;20146;-37
2021/07/11 12:35:14;;;;;;;0.70;0.62;;;32.00;28.40;;;;;;4327519;33;20071;-37
2021/07/11 12:37:59;;;;;;;2.75;0.70;;;32.00;28.30;;;;;;4321700;33;20077;-38
2021/07/11 12:40:33;;;;;;;0.85;0.40;;;32.10;28.50;;;;;;4345047;33;20070;-38
2021/07/11 12:43:07;;;;;;;0.37;0.37;;;32.10;28.50;;;;;;4300891;33;20074;-37
2021/07/11 12:45:37;;;;;;;1.42;0.73;;;32.20;28.70;;;;;;4312064;33;20090;-37
2021/07/11 12:48:04;;;;;;;2.42;0.43;;;32.20;28.90;;;;;;4288565;33;20102;-37
2021/07/11 12:50:43;;;;;;;0.80;0.70;;;32.10;29.00;;;;;;4312200;33;20480;-36
2021/07/11 12:53:10;;;;;;;2.67;0.80;;;32.00;28.90;;;;;;4312748;33;20080;-36
2021/07/11 12:55:37;;;;;;;1.48;0.57;;;31.90;28.90;;;;;;4312456;33;20072;-38
2021/07/11 12:58:13;;;;;;;1.12;0.60;;;31.80;29.10;;;;;;4288301;33;20562;-37
2021/07/11 13:00:40;;;;;;;2.15;0.85;;;31.80;29.20;;;;;;4311978;33;20083;-38